Terminal Aerodrome Forecast
Issued by NWS

Home | Current Version | Previous Version | Text Only | Print | Product List | Glossary On
Versions: 1 2 3 4 5 6 7 8 9 10 11 12 13 14 15 16 17
000
FTUS43 KDDC 111120
TAFHYS
TAF
KHYS 111120Z 1112/1212 30012KT P6SM SKC
     FM111600 33019G26KT P6SM SKC
     FM111900 33024G33KT P6SM SKC
     FM120000 35015G23KT P6SM SKC
     FM120200 34011KT P6SM SKC=

USA.gov is the U.S. government's official web portal to all federal, state and local government web resources and services.